createdAt,value
2023-04-04T00:00:53.080Z,93.24
2023-04-04T00:03:23.853Z,93.24
2023-04-04T00:05:52.910Z,93.18
2023-04-04T00:08:21.690Z,93.05
2023-04-04T00:11:03.386Z,93.06
2023-04-04T00:13:34.075Z,93.01
2023-04-04T00:16:03.270Z,92.64
2023-04-04T00:18:33.793Z,92.73
2023-04-04T00:21:03.991Z,92.66
2023-04-04T00:23:34.242Z,92.65
2023-04-04T00:26:03.318Z,92.69
2023-04-04T00:28:32.143Z,92.53
2023-04-04T00:31:01.985Z,92.53
2023-04-04T00:33:32.551Z,92.58
2023-04-04T00:36:01.766Z,92.46
2023-04-04T00:38:31.572Z,92.33
2023-04-04T00:41:00.306Z,92.37
2023-04-04T00:43:30.145Z,92.29
2023-04-04T00:45:58.938Z,92.22
2023-04-04T00:48:28.406Z,92.23
2023-04-04T00:50:57.381Z,92.36
2023-04-04T00:53:27.148Z,92.43
2023-04-04T00:55:56.762Z,92.49
2023-04-04T00:58:27.148Z,92.29
2023-04-04T01:00:56.054Z,92.23
2023-04-04T01:03:27.062Z,92.35
2023-04-04T01:05:56.773Z,92.21
2023-04-04T01:08:27.059Z,92.21
2023-04-04T01:10:56.796Z,92.31
2023-04-04T01:13:27.001Z,92.42
2023-04-04T01:15:56.644Z,92.38
2023-04-04T01:18:25.533Z,92.29
2023-04-04T01:21:10.478Z,92.29
2023-04-04T01:24:02.078Z,92.37
2023-04-04T01:26:39.417Z,92.26
2023-04-04T01:29:08.232Z,92.19
2023-04-04T01:31:44.121Z,92.14
2023-04-04T01:34:45.523Z,92.16
2023-04-04T01:37:38.374Z,92.22
2023-04-04T01:40:18.099Z,92.23
2023-04-04T01:42:48.938Z,92.18
2023-04-04T01:45:22.968Z,92.22
2023-04-04T01:47:52.949Z,92.25
2023-04-04T01:50:24.000Z,92.30
2023-04-04T01:52:54.256Z,92.31
2023-04-04T01:55:23.325Z,92.40
2023-04-04T01:57:52.767Z,92.41
2023-04-04T02:00:22.779Z,92.54
2023-04-04T02:02:53.859Z,92.68
2023-04-04T02:05:23.773Z,92.60
2023-04-04T02:07:54.878Z,92.68
2023-04-04T02:10:25.652Z,92.79
2023-04-04T02:12:55.441Z,92.84
2023-04-04T02:15:25.352Z,92.95
2023-04-04T02:17:54.742Z,93.00
2023-04-04T02:20:24.461Z,92.96
2023-04-04T02:22:54.380Z,92.99
2023-04-04T02:25:24.465Z,92.95
2023-04-04T02:27:55.254Z,93.08
2023-04-04T02:30:24.433Z,93.29
2023-04-04T02:33:00.307Z,93.31
2023-04-04T02:35:29.405Z,93.21
2023-04-04T02:37:58.180Z,93.21
2023-04-04T02:40:29.662Z,93.21
2023-04-04T02:42:58.935Z,93.15
2023-04-04T02:45:28.328Z,93.17
2023-04-04T02:47:59.285Z,92.91
2023-04-04T02:50:35.855Z,92.91
2023-04-04T02:53:06.070Z,92.92
2023-04-04T02:55:36.933Z,92.88
2023-04-04T02:58:08.864Z,92.86
2023-04-04T03:00:38.630Z,92.88
2023-04-04T03:03:08.310Z,92.91
2023-04-04T03:05:39.512Z,92.91
2023-04-04T03:08:08.648Z,92.92
2023-04-04T03:10:38.059Z,92.93
2023-04-04T03:13:07.655Z,92.88
2023-04-04T03:15:40.680Z,92.86
2023-04-04T03:18:09.825Z,92.89
2023-04-04T03:20:39.164Z,93.02
2023-04-04T03:23:08.212Z,92.97
2023-04-04T03:25:37.324Z,92.94
2023-04-04T03:28:10.980Z,92.98
2023-04-04T03:30:42.651Z,93.08
2023-04-04T03:33:12.929Z,93.22
2023-04-04T03:35:42.199Z,93.23
2023-04-04T03:38:13.368Z,93.26
2023-04-04T03:40:43.960Z,93.37
2023-04-04T03:43:14.281Z,93.37
2023-04-04T03:45:44.345Z,93.35
2023-04-04T03:48:13.581Z,93.38
2023-04-04T03:50:43.252Z,93.50
2023-04-04T03:53:13.475Z,93.44
2023-04-04T03:55:44.655Z,93.51
2023-04-04T03:58:13.753Z,93.55
2023-04-04T04:00:43.427Z,93.82
2023-04-04T04:03:15.701Z,93.80
2023-04-04T04:05:45.001Z,93.91
2023-04-04T04:08:14.139Z,94.00
2023-04-04T04:10:43.603Z,93.94
2023-04-04T04:13:14.650Z,93.95
2023-04-04T04:15:44.063Z,93.93
2023-04-04T04:18:17.140Z,93.85
2023-04-04T04:20:47.028Z,93.90
2023-04-04T04:23:15.710Z,93.77
2023-04-04T04:25:48.011Z,93.79
2023-04-04T04:28:20.416Z,93.84
2023-04-04T04:30:51.159Z,94.02
2023-04-04T04:33:24.292Z,94.09
2023-04-04T04:36:02.152Z,94.14
2023-04-04T04:38:33.384Z,94.22
2023-04-04T04:41:03.284Z,94.34
2023-04-04T04:43:36.906Z,94.25
2023-04-04T04:46:08.113Z,94.35
2023-04-04T04:48:40.432Z,94.45
2023-04-04T04:51:14.622Z,94.38
2023-04-04T04:53:45.367Z,94.30
2023-04-04T04:56:14.745Z,94.42
2023-04-04T04:58:47.073Z,94.37
2023-04-04T05:01:18.673Z,94.36
2023-04-04T05:03:48.688Z,94.49
2023-04-04T05:06:24.785Z,94.53
2023-04-04T05:08:55.717Z,94.56
2023-04-04T05:11:37.918Z,94.61
2023-04-04T05:14:08.145Z,94.68
2023-04-04T05:16:40.665Z,94.64
2023-04-04T05:19:09.689Z,94.63
2023-04-04T05:21:43.225Z,94.48
2023-04-04T05:24:16.909Z,94.49
2023-04-04T05:26:47.080Z,94.60
2023-04-04T05:29:16.173Z,94.59
2023-04-04T05:31:48.817Z,94.49
2023-04-04T05:34:19.882Z,94.21
2023-04-04T05:36:50.507Z,94.02
2023-04-04T05:39:21.026Z,93.92
2023-04-04T05:41:51.676Z,93.92
2023-04-04T05:44:20.760Z,93.90
2023-04-04T05:46:49.450Z,93.92
2023-04-04T05:49:18.780Z,93.91
2023-04-04T05:51:52.958Z,93.91
2023-04-04T05:54:21.641Z,93.88
2023-04-04T05:56:51.768Z,93.74
2023-04-04T05:59:23.471Z,93.81
2023-04-04T06:01:54.186Z,93.76
2023-04-04T06:04:23.502Z,93.53
2023-04-04T06:06:54.633Z,93.45
2023-04-04T06:09:23.757Z,93.33
2023-04-04T06:11:52.795Z,93.06
2023-04-04T06:14:23.433Z,92.81
2023-04-04T06:16:53.041Z,92.83
2023-04-04T06:19:22.992Z,92.99
2023-04-04T06:21:53.124Z,93.06
2023-04-04T06:24:22.473Z,92.74
2023-04-04T06:26:53.059Z,92.80
2023-04-04T06:29:26.198Z,92.89
2023-04-04T06:31:58.389Z,92.82
2023-04-04T06:34:31.038Z,92.85
2023-04-04T06:37:02.203Z,92.79
2023-04-04T06:39:34.573Z,92.60
2023-04-04T06:42:07.606Z,92.17
2023-04-04T06:44:39.665Z,92.01
2023-04-04T06:47:09.198Z,91.87
2023-04-04T06:49:39.455Z,91.64
2023-04-04T06:52:09.874Z,91.55
2023-04-04T06:54:39.324Z,91.48
2023-04-04T06:57:08.453Z,91.35
2023-04-04T06:59:37.151Z,91.27
2023-04-04T07:02:06.120Z,90.98
2023-04-04T07:04:35.212Z,90.74
2023-04-04T07:07:04.301Z,90.71
2023-04-04T07:09:33.468Z,90.51
2023-04-04T07:12:02.300Z,90.36
2023-04-04T07:14:31.278Z,90.22
2023-04-04T07:17:05.539Z,89.92
2023-04-04T07:19:33.893Z,89.59
2023-04-04T07:22:03.451Z,89.50
2023-04-04T07:24:34.198Z,89.23
2023-04-04T07:27:03.798Z,89.12
2023-04-04T07:29:33.036Z,89.07
2023-04-04T07:32:02.862Z,88.71
2023-04-04T07:34:32.733Z,88.57
2023-04-04T07:37:01.756Z,88.42
2023-04-04T07:39:31.231Z,88.31
2023-04-04T07:42:07.198Z,88.01
2023-04-04T07:44:37.517Z,88.03
2023-04-04T07:47:09.992Z,88.25
2023-04-04T07:49:36.679Z,88.46
2023-04-04T07:52:06.107Z,88.51
2023-04-04T07:54:35.638Z,88.67
2023-04-04T07:57:06.393Z,88.45
2023-04-04T07:59:37.756Z,88.57
2023-04-04T08:02:07.245Z,88.58
2023-04-04T08:04:37.017Z,88.73
2023-04-04T08:07:05.846Z,88.48
2023-04-04T08:09:36.654Z,88.48
2023-04-04T08:12:06.629Z,88.55
2023-04-04T08:14:36.618Z,88.10
2023-04-04T08:17:07.081Z,87.82
2023-04-04T08:19:36.643Z,88.01
2023-04-04T08:22:06.485Z,87.78
2023-04-04T08:24:37.716Z,87.90
2023-04-04T08:27:07.229Z,88.04
2023-04-04T08:29:38.292Z,87.77
2023-04-04T08:32:07.516Z,87.96
2023-04-04T08:34:37.474Z,87.65
2023-04-04T08:37:08.437Z,87.39
2023-04-04T08:39:37.714Z,87.13
2023-04-04T08:42:07.548Z,87.01
2023-04-04T08:44:38.261Z,86.68
2023-04-04T08:47:09.452Z,86.55
2023-04-04T08:49:43.495Z,86.87
2023-04-04T08:52:12.787Z,86.77
2023-04-04T08:54:43.097Z,86.60
2023-04-04T08:57:12.693Z,86.29
2023-04-04T08:59:42.392Z,86.10
2023-04-04T09:02:19.720Z,86.06
2023-04-04T09:04:58.278Z,86.12
2023-04-04T09:07:20.053Z,85.80
2023-04-04T09:09:49.843Z,85.67
2023-04-04T09:12:19.471Z,85.75
2023-04-04T09:14:51.709Z,85.81
2023-04-04T09:17:21.722Z,85.85
2023-04-04T09:19:50.369Z,85.76
2023-04-04T09:22:19.545Z,85.59
2023-04-04T09:24:50.359Z,85.50
2023-04-04T09:27:22.754Z,85.12
2023-04-04T09:29:53.040Z,85.24
2023-04-04T09:32:25.119Z,85.41
2023-04-04T09:34:54.124Z,85.56
2023-04-04T09:37:23.213Z,85.75
2023-04-04T09:39:52.514Z,85.60
2023-04-04T09:42:21.656Z,85.80
2023-04-04T09:44:56.104Z,86.03
2023-04-04T09:47:31.687Z,86.22
2023-04-04T09:50:01.594Z,86.24
2023-04-04T09:52:36.753Z,85.88
2023-04-04T09:55:08.149Z,85.53
2023-04-04T09:57:39.545Z,85.69
2023-04-04T10:00:09.597Z,85.37
2023-04-04T10:02:43.042Z,84.97
2023-04-04T10:05:12.436Z,84.55
2023-04-04T10:07:43.136Z,83.76
2023-04-04T10:10:19.870Z,83.47
2023-04-04T10:13:03.751Z,83.29
2023-04-04T10:15:38.765Z,83.34
2023-04-04T10:18:08.462Z,83.19
2023-04-04T10:20:37.869Z,82.87
2023-04-04T10:23:07.554Z,82.74
2023-04-04T10:25:37.080Z,83.10
2023-04-04T10:28:07.918Z,82.56
2023-04-04T10:30:55.756Z,82.64
2023-04-04T10:33:48.497Z,81.87
2023-04-04T10:36:27.370Z,81.69
2023-04-04T10:39:27.727Z,81.97
2023-04-04T10:41:57.171Z,82.18
2023-04-04T10:44:34.867Z,82.82
2023-04-04T10:47:17.549Z,82.84
2023-04-04T10:49:48.189Z,82.31
2023-04-04T10:52:24.270Z,81.89
2023-04-04T10:54:56.899Z,81.50
2023-04-04T10:57:25.996Z,80.73
2023-04-04T11:00:10.261Z,80.31
2023-04-04T11:03:00.185Z,79.87
2023-04-04T11:05:50.984Z,80.03
2023-04-04T11:08:25.332Z,80.21
2023-04-04T11:10:55.133Z,79.86
2023-04-04T11:13:39.971Z,79.89
2023-04-04T11:16:15.596Z,80.07
2023-04-04T11:18:47.646Z,79.86
2023-04-04T11:21:19.625Z,79.36
2023-04-04T11:23:53.840Z,79.15
2023-04-04T11:26:34.270Z,79.25
2023-04-04T11:29:04.414Z,79.01
2023-04-04T11:31:40.657Z,78.72
2023-04-04T11:34:12.637Z,78.86
2023-04-04T11:36:47.232Z,78.76
2023-04-04T11:39:30.860Z,78.99
2023-04-04T11:42:08.655Z,78.65
2023-04-04T11:44:45.077Z,79.32
2023-04-04T11:47:14.177Z,79.32
2023-04-04T11:49:44.568Z,79.05
2023-04-04T11:52:16.210Z,79.20
2023-04-04T11:54:47.453Z,79.29
2023-04-04T11:57:19.302Z,78.93
2023-04-04T11:59:49.702Z,78.85
2023-04-04T12:02:26.641Z,78.81
2023-04-04T12:04:56.556Z,79.34
2023-04-04T12:07:28.427Z,79.17
2023-04-04T12:09:58.554Z,79.17
2023-04-04T12:12:28.674Z,79.19
2023-04-04T12:15:06.772Z,78.95
2023-04-04T12:17:34.416Z,78.96
2023-04-04T12:20:04.890Z,78.98
2023-04-04T12:22:41.770Z,78.52
2023-04-04T12:25:11.551Z,78.40
2023-04-04T12:27:44.355Z,78.24
2023-04-04T12:30:15.912Z,78.24
2023-04-04T12:32:49.169Z,78.38
2023-04-04T12:35:18.551Z,78.35
2023-04-04T12:38:11.051Z,78.39
2023-04-04T12:40:40.673Z,78.37
2023-04-04T12:43:10.164Z,78.24
2023-04-04T12:45:41.537Z,78.33
2023-04-04T12:48:16.788Z,78.42
2023-04-04T12:50:55.566Z,78.51
2023-04-04T12:53:29.822Z,78.54
2023-04-04T12:56:04.888Z,78.55
2023-04-04T12:58:37.535Z,78.51
2023-04-04T13:01:08.533Z,78.72
2023-04-04T13:03:39.089Z,78.77
2023-04-04T13:06:17.374Z,78.70
2023-04-04T13:08:55.509Z,78.92
2023-04-04T13:11:27.464Z,79.01
2023-04-04T13:14:03.184Z,79.02
2023-04-04T13:16:38.479Z,78.95
2023-04-04T13:19:09.679Z,78.86
2023-04-04T13:21:40.626Z,78.80
2023-04-04T13:24:10.364Z,78.68
2023-04-04T13:26:39.153Z,78.83
2023-04-04T13:29:08.300Z,79.24
2023-04-04T13:31:38.094Z,78.80
2023-04-04T13:34:07.375Z,78.63
2023-04-04T13:36:36.415Z,78.89
2023-04-04T13:39:05.377Z,78.81
2023-04-04T13:41:34.357Z,78.41
2023-04-04T13:44:04.386Z,78.31
2023-04-04T13:46:33.327Z,78.09
2023-04-04T13:49:04.120Z,77.66
2023-04-04T13:51:33.619Z,77.68
2023-04-04T13:54:02.804Z,77.91
2023-04-04T13:56:32.871Z,77.81
2023-04-04T13:59:04.093Z,77.67
2023-04-04T14:01:34.100Z,77.54
2023-04-04T14:04:13.198Z,77.31
2023-04-04T14:06:35.086Z,77.42
2023-04-04T14:09:05.067Z,77.55
2023-04-04T14:11:35.918Z,77.69
2023-04-04T14:14:04.930Z,77.80
2023-04-04T14:16:34.678Z,77.98
2023-04-04T14:19:04.844Z,78.03
2023-04-04T14:21:34.160Z,77.95
2023-04-04T14:24:03.683Z,77.93
2023-04-04T14:26:35.149Z,77.44
2023-04-04T14:29:04.715Z,77.58
2023-04-04T14:31:34.942Z,77.37
2023-04-04T14:34:05.678Z,77.29
2023-04-04T14:36:35.809Z,77.42
2023-04-04T14:39:05.297Z,77.22
2023-04-04T14:41:34.912Z,77.36
2023-04-04T14:44:04.018Z,77.46
2023-04-04T14:46:33.877Z,77.71
2023-04-04T14:49:04.663Z,77.81
2023-04-04T14:51:33.774Z,77.72
2023-04-04T14:54:02.813Z,77.98
2023-04-04T14:56:32.375Z,78.08
2023-04-04T14:59:02.717Z,77.99
2023-04-04T15:01:32.292Z,78.03
2023-04-04T15:04:01.842Z,78.03
2023-04-04T15:06:35.797Z,77.98
2023-04-04T15:09:06.140Z,78.34
2023-04-04T15:11:36.518Z,78.31
2023-04-04T15:14:06.393Z,78.28
2023-04-04T15:16:35.729Z,78.36
2023-04-04T15:19:05.051Z,78.36
2023-04-04T15:21:35.429Z,78.29
2023-04-04T15:24:04.945Z,78.21
2023-04-04T15:26:35.621Z,77.97
2023-04-04T15:29:04.771Z,77.98
2023-04-04T15:31:34.698Z,77.94
2023-04-04T15:34:05.112Z,77.93
2023-04-04T15:36:36.041Z,77.52
2023-04-04T15:39:05.880Z,77.74
2023-04-04T15:41:36.472Z,77.88
2023-04-04T15:44:05.373Z,78.08
2023-04-04T15:46:34.475Z,78.03
2023-04-04T15:49:04.386Z,78.03
2023-04-04T15:51:33.998Z,77.67
2023-04-04T15:54:04.352Z,77.57
2023-04-04T15:56:33.932Z,77.73
2023-04-04T15:59:02.783Z,78.03
2023-04-04T16:01:36.509Z,78.85
2023-04-04T16:04:06.949Z,78.76
2023-04-04T16:06:37.760Z,78.25
2023-04-04T16:09:09.850Z,77.79
2023-04-04T16:11:40.325Z,77.69
2023-04-04T16:14:10.738Z,77.80
2023-04-04T16:16:41.482Z,77.92
2023-04-04T16:19:12.618Z,78.08
2023-04-04T16:21:41.613Z,78.19
2023-04-04T16:24:15.849Z,78.11
2023-04-04T16:26:49.906Z,78.22
2023-04-04T16:29:18.721Z,78.32
2023-04-04T16:31:49.130Z,78.48
2023-04-04T16:34:18.237Z,78.61
2023-04-04T16:36:48.727Z,78.59
2023-04-04T16:39:18.889Z,78.62
2023-04-04T16:41:49.861Z,78.54
2023-04-04T16:44:22.671Z,78.63
2023-04-04T16:46:52.320Z,78.62
2023-04-04T16:49:21.240Z,78.76
2023-04-04T16:51:51.690Z,78.87
2023-04-04T16:54:21.762Z,78.88
2023-04-04T16:56:52.606Z,78.94
2023-04-04T16:59:22.657Z,79.01
2023-04-04T17:01:52.256Z,79.02
2023-04-04T17:04:21.515Z,79.12
2023-04-04T17:06:51.160Z,79.46
2023-04-04T17:09:20.484Z,79.74
2023-04-04T17:11:51.689Z,79.96
2023-04-04T17:14:22.041Z,80.44
2023-04-04T17:16:52.409Z,80.81
2023-04-04T17:19:21.467Z,81.15
2023-04-04T17:21:51.157Z,81.40
2023-04-04T17:24:19.820Z,81.76
2023-04-04T17:26:49.146Z,82.23
2023-04-04T17:29:19.809Z,82.50
2023-04-04T17:31:50.759Z,82.71
2023-04-04T17:34:20.505Z,82.94
2023-04-04T17:36:49.423Z,83.29
2023-04-04T17:39:18.346Z,83.51
2023-04-04T17:41:52.936Z,83.86
2023-04-04T17:44:22.586Z,84.19
2023-04-04T17:46:51.520Z,84.67
2023-04-04T17:49:20.580Z,85.12
2023-04-04T17:51:51.304Z,85.53
2023-04-04T17:54:21.288Z,85.92
2023-04-04T17:56:50.480Z,86.45
2023-04-04T17:59:19.548Z,86.80
2023-04-04T18:01:51.825Z,87.25
2023-04-04T18:04:22.021Z,87.63
2023-04-04T18:06:52.577Z,88.00
2023-04-04T18:09:23.548Z,88.42
2023-04-04T18:11:54.914Z,88.93
2023-04-04T18:14:24.044Z,89.19
2023-04-04T18:16:52.942Z,89.43
2023-04-04T18:19:22.597Z,89.67
2023-04-04T18:21:53.584Z,89.93
2023-04-04T18:24:22.864Z,90.02
2023-04-04T18:26:53.563Z,90.15
2023-04-04T18:29:25.592Z,90.31
2023-04-04T18:31:54.609Z,90.31
2023-04-04T18:34:23.501Z,90.46
2023-04-04T18:36:52.965Z,90.69
2023-04-04T18:39:23.352Z,90.89
2023-04-04T18:41:53.420Z,91.14
2023-04-04T18:44:23.963Z,90.99
2023-04-04T18:46:53.108Z,91.24
2023-04-04T18:49:22.082Z,91.49
2023-04-04T18:51:51.300Z,91.71
2023-04-04T18:54:22.146Z,91.92
2023-04-04T18:56:51.288Z,92.05
2023-04-04T18:59:22.288Z,92.10
2023-04-04T19:01:56.162Z,92.24
2023-04-04T19:04:26.358Z,92.38
2023-04-04T19:06:55.932Z,92.41
2023-04-04T19:09:25.221Z,92.41
2023-04-04T19:11:53.786Z,92.46
2023-04-04T19:14:22.406Z,92.67
2023-04-04T19:16:54.946Z,92.77
2023-04-04T19:19:24.481Z,92.77
2023-04-04T19:21:53.275Z,92.80
2023-04-04T19:24:21.988Z,92.79
2023-04-04T19:26:51.458Z,92.94
2023-04-04T19:29:21.812Z,93.16
2023-04-04T19:31:54.643Z,93.42
2023-04-04T19:34:23.392Z,93.60
2023-04-04T19:36:53.572Z,93.71
2023-04-04T19:39:22.328Z,93.78
2023-04-04T19:41:51.362Z,93.86
2023-04-04T19:44:20.771Z,93.79
2023-04-04T19:46:52.714Z,93.90
2023-04-04T19:49:24.648Z,94.03
2023-04-04T19:51:58.216Z,94.16
2023-04-04T19:54:41.003Z,94.26
2023-04-04T19:57:19.913Z,94.40
2023-04-04T20:00:10.677Z,94.48
2023-04-04T20:02:51.225Z,94.63
2023-04-04T20:05:38.046Z,94.61
2023-04-04T20:08:06.828Z,94.70
2023-04-04T20:10:39.545Z,94.82
2023-04-04T20:13:10.653Z,94.87
2023-04-04T20:15:51.620Z,94.86
2023-04-04T20:18:25.019Z,94.86
2023-04-04T20:21:05.891Z,94.92
2023-04-04T20:24:07.856Z,95.04
2023-04-04T20:26:45.865Z,95.19
2023-04-04T20:29:16.401Z,95.26
2023-04-04T20:31:50.861Z,95.42
2023-04-04T20:34:46.467Z,95.42
2023-04-04T20:37:23.138Z,95.47
2023-04-04T20:40:14.462Z,95.60
2023-04-04T20:42:43.980Z,95.61
2023-04-04T20:45:29.888Z,95.73
2023-04-04T20:48:06.884Z,95.80
2023-04-04T20:50:42.503Z,95.90
2023-04-04T20:53:16.379Z,96.01
2023-04-04T20:55:47.113Z,96.08
2023-04-04T20:58:28.455Z,96.17
2023-04-04T21:00:59.118Z,96.18
2023-04-04T21:03:35.419Z,96.27
2023-04-04T21:06:11.174Z,96.43
2023-04-04T21:08:49.830Z,96.56
2023-04-04T21:11:32.724Z,96.62
2023-04-04T21:14:03.212Z,96.79
2023-04-04T21:16:39.799Z,96.84
2023-04-04T21:19:09.549Z,96.97
2023-04-04T21:21:39.318Z,96.89
2023-04-04T21:24:10.156Z,97.02
2023-04-04T21:26:41.697Z,97.07
2023-04-04T21:29:25.603Z,97.04
2023-04-04T21:31:55.650Z,97.05
2023-04-04T21:34:26.404Z,97.10
2023-04-04T21:36:58.857Z,97.15
2023-04-04T21:39:31.065Z,97.19
2023-04-04T21:42:06.037Z,97.17
2023-04-04T21:44:35.077Z,97.25
2023-04-04T21:47:04.377Z,97.28
2023-04-04T21:49:33.592Z,97.26
2023-04-04T21:52:02.587Z,97.36
2023-04-04T21:54:31.874Z,97.38
2023-04-04T21:57:04.003Z,97.40
2023-04-04T21:59:33.890Z,97.49
2023-04-04T22:02:03.396Z,97.35
2023-04-04T22:04:34.590Z,97.23
2023-04-04T22:07:04.147Z,97.39
2023-04-04T22:09:33.944Z,97.52
2023-04-04T22:12:05.511Z,97.55
2023-04-04T22:14:35.492Z,97.57
2023-04-04T22:17:05.971Z,97.56
2023-04-04T22:19:38.033Z,97.43
2023-04-04T22:22:06.994Z,97.58
2023-04-04T22:24:37.011Z,97.62
2023-04-04T22:27:07.347Z,97.51
2023-04-04T22:29:37.266Z,97.69
2023-04-04T22:32:06.706Z,97.95
2023-04-04T22:34:37.017Z,97.96
2023-04-04T22:37:07.468Z,98.03
2023-04-04T22:39:37.514Z,98.06
2023-04-04T22:42:06.739Z,98.12
2023-04-04T22:44:35.792Z,98.19
2023-04-04T22:47:07.803Z,98.20
2023-04-04T22:49:39.290Z,98.35
2023-04-04T22:52:10.106Z,98.30
2023-04-04T22:54:40.717Z,98.02
2023-04-04T22:57:10.022Z,98.15
2023-04-04T22:59:40.362Z,98.35
2023-04-04T23:02:09.952Z,98.42
2023-04-04T23:04:40.247Z,98.50
2023-04-04T23:07:09.532Z,98.54
2023-04-04T23:12:27.350Z,98.56
2023-04-04T23:15:01.409Z,98.67
2023-04-04T23:17:33.180Z,98.78
2023-04-04T23:20:04.523Z,98.74
2023-04-04T23:22:34.779Z,98.84
2023-04-04T23:25:06.846Z,98.97
2023-04-04T23:27:37.397Z,99.10
2023-04-04T23:30:09.880Z,99.13
2023-04-04T23:32:42.122Z,99.07
2023-04-04T23:35:11.646Z,99.18
2023-04-04T23:37:40.769Z,99.30
2023-04-04T23:40:11.766Z,99.44
2023-04-04T23:42:41.648Z,99.56
2023-04-04T23:45:12.458Z,99.55
2023-04-04T23:47:43.074Z,99.71
2023-04-04T23:50:13.045Z,99.71
2023-04-04T23:52:43.607Z,99.69
2023-04-04T23:55:13.494Z,99.65
2023-04-04T23:57:43.548Z,99.71
